Time;durP1;ratioP1;P1;durP2;ratioP2;P2;SDS_P1;SDS_P2;PMS_P1;PMS_P2;Temp;Humidity;BMP_temperature;BMP_pressure;BME280_temperature;BME280_humidity;BME280_pressure;Samples;Min_cycle;Max_cycle;Signal;HPM_P1;HPM_P2
2021/05/24 00:00:09;;;;;;;10.32;2.55;;;;;;;21.63;34.94;99444.28;5041530;28;20094;-73
2021/05/24 00:02:36;;;;;;;10.10;2.73;;;;;;;21.55;34.58;99432.50;5024964;28;20062;-74
2021/05/24 00:05:04;;;;;;;6.95;2.53;;;;;;;21.52;34.64;99441.03;5024526;28;20407;-73
2021/05/24 00:07:30;;;;;;;7.43;2.50;;;;;;;21.48;34.91;99434.28;5008048;28;20404;-73
2021/05/24 00:09:55;;;;;;;6.32;2.30;;;;;;;21.49;34.88;99438.69;5057417;28;20139;-73
2021/05/24 00:12:26;;;;;;;11.82;2.60;;;;;;;21.45;34.70;99448.25;5056680;28;20210;-74
2021/05/24 00:14:53;;;;;;;10.57;2.85;;;;;;;21.42;34.69;99447.78;5074226;28;20075;-74
2021/05/24 00:17:19;;;;;;;4.18;2.50;;;;;;;21.38;34.86;99441.91;5023885;28;20043;-74
2021/05/24 00:19:45;;;;;;;6.90;2.80;;;;;;;21.39;34.93;99459.88;5040191;28;20040;-74
2021/05/24 00:22:11;;;;;;;6.53;2.60;;;;;;;21.31;34.94;99446.38;5023725;28;20043;-74
2021/05/24 00:24:37;;;;;;;6.47;2.60;;;;;;;21.32;34.96;99453.47;5040186;28;20059;-73
2021/05/24 00:27:03;;;;;;;14.38;2.85;;;;;;;21.23;35.11;99450.03;5040186;28;20064;-72
2021/05/24 00:29:29;;;;;;;9.48;3.20;;;;;;;21.28;35.19;99463.06;5023660;28;20140;-73
2021/05/24 00:32:02;;;;;;;15.88;2.90;;;;;;;21.22;35.13;99461.09;5057546;28;20469;-75
2021/05/24 00:34:28;;;;;;;8.50;2.53;;;;;;;21.26;35.27;99465.13;5023441;28;20083;-74
2021/05/24 00:36:55;;;;;;;9.25;2.47;;;;;;;21.16;35.85;99459.13;5007053;28;20147;-73
2021/05/24 00:39:22;;;;;;;6.80;3.40;;;;;;;21.22;35.63;99470.09;5022777;28;20132;-74
2021/05/24 00:41:48;;;;;;;8.73;2.50;;;;;;;21.26;35.92;99473.28;5039712;28;20044;-73
2021/05/24 00:44:15;;;;;;;21.10;4.72;;;;;;;21.24;36.10;99478.91;5039854;28;20040;-73
2021/05/24 00:46:41;;;;;;;4.68;2.35;;;;;;;21.26;36.18;99481.44;5006982;28;20098;-75
2021/05/24 00:49:07;;;;;;;5.85;2.20;;;;;;;21.24;36.15;99478.06;5040070;28;20131;-74
2021/05/24 00:51:33;;;;;;;4.30;2.40;;;;;;;21.28;36.47;99474.78;5039863;28;20044;-74
2021/05/24 00:53:59;;;;;;;12.43;2.90;;;;;;;21.26;36.54;99476.00;5056163;28;20048;-74
2021/05/24 00:56:25;;;;;;;5.95;2.60;;;;;;;21.32;36.53;99477.94;5039718;28;20051;-73
2021/05/24 00:58:51;;;;;;;9.15;2.38;;;;;;;21.34;36.49;99471.34;5006709;28;20047;-74
2021/05/24 01:01:17;;;;;;;3.85;2.10;;;;;;;21.33;36.42;99475.09;5023076;28;20040;-75
2021/05/24 01:03:44;;;;;;;10.55;2.55;;;;;;;21.37;36.64;99489.16;5039579;28;20157;-76
2021/05/24 01:06:10;;;;;;;10.00;2.50;;;;;;;21.34;36.53;99468.63;5055956;28;20495;-74
2021/05/24 01:08:36;;;;;;;11.80;3.17;;;;;;;21.41;36.56;99473.31;5056197;28;20055;-75
2021/05/24 01:11:02;;;;;;;9.65;3.03;;;;;;;21.45;36.62;99480.06;5006485;28;20548;-75
2021/05/24 01:13:28;;;;;;;6.35;2.53;;;;;;;21.44;36.65;99484.66;5072194;28;20101;-74
2021/05/24 01:15:54;;;;;;;11.30;2.70;;;;;;;21.41;36.71;99478.75;5022930;28;20048;-73
2021/05/24 01:18:20;;;;;;;12.45;3.17;;;;;;;21.40;36.43;99480.63;5006614;28;20040;-75
2021/05/24 01:20:46;;;;;;;5.38;2.85;;;;;;;21.34;36.71;99479.50;5039240;28;20044;-75
2021/05/24 01:23:17;;;;;;;10.38;2.95;;;;;;;21.36;36.41;99471.13;5007584;28;20048;-75
2021/05/24 01:25:44;;;;;;;11.82;2.92;;;;;;;21.47;35.93;99484.25;5072609;28;20054;-76
2021/05/24 01:28:13;;;;;;;14.35;3.00;;;;;;;21.52;35.99;99481.81;5039334;28;20056;-75
2021/05/24 01:30:40;;;;;;;12.85;2.45;;;;;;;21.56;35.65;99471.41;5039424;28;20097;-75
2021/05/24 01:33:06;;;;;;;17.55;2.53;;;;;;;21.64;35.58;99484.06;5022570;28;20127;-75
2021/05/24 01:35:32;;;;;;;11.13;3.35;;;;;;;21.60;35.75;99477.31;5038815;28;20521;-75
2021/05/24 01:37:58;;;;;;;10.05;2.75;;;;;;;21.65;35.29;99481.13;5055664;28;20549;-74
2021/05/24 01:40:24;;;;;;;12.82;2.70;;;;;;;21.71;35.31;99487.69;5038856;28;20045;-73
2021/05/24 01:42:56;;;;;;;7.70;2.75;;;;;;;21.69;35.05;99482.44;5022453;28;20093;-74
2021/05/24 01:45:22;;;;;;;13.15;2.75;;;;;;;21.72;35.19;99476.63;5038872;28;20488;-75
2021/05/24 01:47:48;;;;;;;8.15;2.85;;;;;;;21.70;35.16;99481.41;5022090;28;20127;-74
2021/05/24 01:50:14;;;;;;;12.65;2.47;;;;;;;21.70;35.18;99486.00;5054808;28;20143;-76
2021/05/24 01:52:41;;;;;;;6.38;2.45;;;;;;;21.75;35.21;99489.84;5022039;28;20491;-75
2021/05/24 01:55:08;;;;;;;5.90;2.60;;;;;;;21.77;34.98;99479.59;5055209;28;20094;-75
2021/05/24 01:57:34;;;;;;;7.35;2.35;;;;;;;21.81;35.11;99483.66;5038677;28;20055;-75
2021/05/24 02:00:00;;;;;;;6.15;2.70;;;;;;;21.81;34.57;99477.34;5021997;28;20127;-76
2021/05/24 02:02:28;;;;;;;8.30;2.53;;;;;;;21.90;34.59;99484.38;5038122;28;20495;-74
2021/05/24 02:04:54;;;;;;;11.02;2.58;;;;;;;21.95;34.30;99484.63;5026328;28;20055;-75
2021/05/24 02:07:20;;;;;;;8.30;2.80;;;;;;;22.01;34.67;99483.84;5021268;28;20446;-74
2021/05/24 02:09:46;;;;;;;5.95;2.35;;;;;;;22.04;34.38;99496.22;5054862;28;20090;-75
2021/05/24 02:12:12;;;;;;;14.02;2.80;;;;;;;22.04;34.16;99491.66;5005041;28;20052;-75
2021/05/24 02:14:38;;;;;;;4.82;2.55;;;;;;;22.13;34.40;99483.34;5038199;28;20044;-75
2021/05/24 02:17:05;;;;;;;10.98;3.03;;;;;;;22.19;34.40;99488.03;5021420;28;20044;-75
2021/05/24 02:19:31;;;;;;;13.82;2.92;;;;;;;22.29;34.59;99494.00;5002075;28;20040;-74
2021/05/24 02:21:57;;;;;;;14.35;3.25;;;;;;;22.22;34.85;99488.47;5005446;28;20523;-75
2021/05/24 02:24:23;;;;;;;8.68;2.72;;;;;;;22.25;34.82;99490.81;5018464;28;20127;-76
2021/05/24 02:26:49;;;;;;;12.93;2.75;;;;;;;22.23;35.19;99487.47;5002044;28;20049;-75
2021/05/24 02:29:15;;;;;;;4.13;2.60;;;;;;;22.26;35.07;99494.38;5018223;28;20053;-75
2021/05/24 02:31:41;;;;;;;12.98;2.85;;;;;;;22.30;35.05;99501.13;5023825;28;20164;-75
2021/05/24 02:34:08;;;;;;;10.77;3.50;;;;;;;22.33;35.33;99498.03;5036540;28;20043;-75
2021/05/24 02:36:34;;;;;;;15.45;3.40;;;;;;;22.35;35.43;99493.22;5053826;28;20617;-73
2021/05/24 02:39:03;;;;;;;8.50;3.05;;;;;;;22.38;35.42;99492.84;5021418;28;20044;-76
2021/05/24 02:41:29;;;;;;;7.57;3.05;;;;;;;22.40;35.61;99485.31;5053209;28;20051;-76
2021/05/24 02:43:55;;;;;;;12.50;3.15;;;;;;;22.42;35.56;99472.34;5004548;28;20418;-76
2021/05/24 02:46:21;;;;;;;12.07;3.00;;;;;;;22.55;35.82;99477.91;5020683;28;20070;-76
2021/05/24 02:48:48;;;;;;;9.25;3.22;;;;;;;22.65;35.49;99479.47;5021303;28;20045;-75
2021/05/24 02:51:14;;;;;;;20.40;3.53;;;;;;;22.64;35.75;99480.47;5021594;28;20044;-75
2021/05/24 02:53:40;;;;;;;11.65;3.38;;;;;;;22.75;35.55;99488.97;5021438;28;20072;-75
2021/05/24 02:56:06;;;;;;;14.25;3.60;;;;;;;22.90;35.54;99485.28;5054341;28;20051;-76
2021/05/24 02:58:32;;;;;;;11.27;3.13;;;;;;;23.05;35.74;99487.94;5037798;28;20044;-77
2021/05/24 03:00:58;;;;;;;16.77;3.92;;;;;;;23.03;35.47;99467.16;5021315;28;20491;-77
2021/05/24 03:03:24;;;;;;;26.20;4.00;;;;;;;23.23;35.42;99490.97;5073128;28;20063;-76
2021/05/24 03:05:51;;;;;;;9.25;3.15;;;;;;;23.22;35.90;99490.16;5041360;28;20040;-74
2021/05/24 03:08:17;;;;;;;11.65;3.20;;;;;;;23.25;35.78;99488.91;5058173;28;20041;-76
2021/05/24 03:10:43;;;;;;;21.65;3.50;;;;;;;23.33;35.53;99483.28;5041291;28;20036;-77
2021/05/24 03:13:10;;;;;;;8.93;3.00;;;;;;;23.43;35.56;99482.91;5024970;28;20069;-75
2021/05/24 03:15:36;;;;;;;12.27;2.97;;;;;;;23.46;35.89;99491.53;5058054;28;20087;-77
2021/05/24 03:18:02;;;;;;;23.17;3.17;;;;;;;23.55;35.79;99489.47;5025218;28;20045;-78
2021/05/24 03:20:28;;;;;;;15.57;3.22;;;;;;;23.67;35.95;99487.03;5074262;28;20091;-79
2021/05/24 03:22:54;;;;;;;7.00;2.67;;;;;;;23.73;35.99;99491.66;5041913;28;20051;-80
2021/05/24 03:25:20;;;;;;;11.27;3.63;;;;;;;23.84;36.12;99493.81;5025268;28;20506;-81
2021/05/24 03:27:47;;;;;;;17.00;2.90;;;;;;;23.88;36.19;99492.38;5074736;28;20049;-80
2021/05/24 03:30:14;;;;;;;15.05;2.97;;;;;;;24.01;36.50;99490.72;5057395;28;20045;-81
2021/05/24 03:32:41;;;;;;;17.35;2.95;;;;;;;24.13;36.31;99497.25;5041451;28;20047;-79
2021/05/24 03:35:07;;;;;;;12.50;3.33;;;;;;;24.18;36.22;99490.13;5057275;28;20514;-78
2021/05/24 03:37:34;;;;;;;8.38;3.50;;;;;;;24.29;36.12;99490.56;5057771;28;20045;-79
2021/05/24 03:40:00;;;;;;;18.52;3.13;;;;;;;24.37;36.30;99491.22;5041424;28;20044;-78
2021/05/24 03:42:26;;;;;;;20.35;3.03;;;;;;;24.53;36.21;99491.88;5040667;28;20139;-76
2021/05/24 03:44:52;;;;;;;16.33;2.45;;;;;;;24.62;36.04;99490.63;5075115;28;20056;-75
2021/05/24 03:47:18;;;;;;;10.00;3.00;;;;;;;24.69;35.78;99480.53;5057408;28;20041;-76
2021/05/24 03:49:46;;;;;;;16.35;2.65;;;;;;;24.87;35.78;99488.94;5024889;28;20652;-80
2021/05/24 03:52:16;;;;;;;8.10;2.40;;;;;;;24.98;35.65;99490.19;5057456;28;20043;-78
2021/05/24 03:54:42;;;;;;;15.57;3.00;;;;;;;25.13;35.51;99499.03;5040742;28;20061;-77
2021/05/24 03:57:08;;;;;;;22.20;2.97;;;;;;;25.24;35.20;99499.41;5025699;28;20064;-79
2021/05/24 03:59:34;;;;;;;15.95;2.65;;;;;;;25.37;34.91;99494.75;5026361;28;20052;-80
2021/05/24 04:02:01;;;;;;;19.90;2.90;;;;;;;25.54;34.74;99497.84;5025950;28;20044;-80
2021/05/24 04:04:27;;;;;;;8.27;2.33;;;;;;;25.61;34.33;99492.34;5025633;28;20045;-80
2021/05/24 04:06:55;;;;;;;9.90;1.90;;;;;;;25.77;34.25;99488.28;5024992;28;20076;-80
2021/05/24 04:09:22;;;;;;;13.00;1.80;;;;;;;25.90;33.54;99493.72;5041852;28;20040;-78
2021/05/24 04:11:49;;;;;;;4.05;1.70;;;;;;;26.02;33.28;99486.47;5004581;28;20159;-78
2021/05/24 04:14:16;;;;;;;7.82;1.63;;;;;;;26.08;32.73;99503.94;5017608;28;20514;-82
2021/05/24 04:16:42;;;;;;;6.05;1.90;;;;;;;26.19;32.68;99486.81;4985387;28;20431;-78
2021/05/24 04:19:10;;;;;;;6.93;2.83;;;;;;;26.36;32.36;99493.41;4985267;28;20073;-79
2021/05/24 04:21:36;;;;;;;10.82;2.17;;;;;;;26.45;32.30;99493.19;5001682;28;20037;-81
2021/05/24 04:24:04;;;;;;;11.20;2.10;;;;;;;26.53;31.98;99488.28;5001523;28;20441;-80
2021/05/24 04:26:30;;;;;;;8.80;2.70;;;;;;;26.74;32.03;99488.94;5018194;28;20147;-79
2021/05/24 04:28:56;;;;;;;15.07;2.78;;;;;;;26.88;32.06;99480.38;4987818;28;20084;-79
2021/05/24 04:31:23;;;;;;;16.35;2.90;;;;;;;26.96;31.58;99478.41;5036889;28;20068;-81
2021/05/24 04:33:49;;;;;;;6.97;3.10;;;;;;;27.17;31.08;99488.16;5003150;28;20128;-80
2021/05/24 04:36:15;;;;;;;7.65;3.17;;;;;;;27.19;31.20;99492.34;5003498;28;20052;-78
2021/05/24 04:38:42;;;;;;;7.05;3.15;;;;;;;27.27;31.30;99499.44;5017499;28;20036;-81
2021/05/24 04:41:08;;;;;;;12.63;3.25;;;;;;;27.29;31.26;99486.34;5017978;28;20076;-80
2021/05/24 04:43:36;;;;;;;14.80;3.38;;;;;;;27.44;31.01;99494.19;5001505;28;20045;-79
2021/05/24 04:46:02;;;;;;;14.85;3.50;;;;;;;27.54;31.06;99497.25;4985551;28;20044;-79
2021/05/24 04:48:28;;;;;;;10.20;3.95;;;;;;;27.70;30.89;99487.53;5017622;28;20041;-80
2021/05/24 04:50:54;;;;;;;23.02;3.88;;;;;;;27.86;30.70;99497.06;5017631;28;20118;-80
2021/05/24 04:53:20;;;;;;;12.88;3.60;;;;;;;28.03;30.77;99487.13;5035571;28;20555;-78
2021/05/24 04:55:46;;;;;;;11.00;2.83;;;;;;;28.16;30.80;99478.69;5003271;28;20135;-77
2021/05/24 04:58:12;;;;;;;13.57;3.28;;;;;;;28.30;30.71;99479.31;4970765;28;20047;-77
2021/05/24 05:00:39;;;;;;;10.98;2.72;;;;;;;28.43;30.85;99481.88;5003056;28;20064;-79
2021/05/24 05:03:05;;;;;;;14.55;2.88;;;;;;;28.58;30.86;99484.19;5019573;28;20057;-78
2021/05/24 05:05:34;;;;;;;6.90;2.70;;;;;;;28.74;31.15;99482.69;4986938;28;20041;-79
2021/05/24 05:08:00;;;;;;;16.27;3.55;;;;;;;28.89;30.87;99480.28;4987285;28;20492;-78
2021/05/24 05:10:26;;;;;;;22.75;3.20;;;;;;;29.06;31.07;99485.09;5019488;28;20040;-78
2021/05/24 05:12:52;;;;;;;15.15;2.83;;;;;;;29.14;30.54;99482.81;5021301;28;20067;-80
2021/05/24 05:15:19;;;;;;;10.00;2.58;;;;;;;29.27;30.53;99479.81;5008345;28;20071;-80
2021/05/24 05:17:45;;;;;;;10.57;2.40;;;;;;;29.39;30.70;99477.03;5023975;28;20048;-78
2021/05/24 05:20:12;;;;;;;21.90;2.75;;;;;;;29.60;30.38;99492.13;5023101;28;20052;-81
2021/05/24 05:22:38;;;;;;;11.73;2.33;;;;;;;29.64;30.16;99476.78;5006484;28;20094;-78
2021/05/24 05:25:05;;;;;;;15.55;2.72;;;;;;;29.77;29.87;99492.19;5022394;28;20094;-80
2021/05/24 05:27:31;;;;;;;12.98;2.45;;;;;;;29.86;29.31;99496.22;5023044;28;20557;-78
2021/05/24 05:29:57;;;;;;;10.88;2.17;;;;;;;29.95;29.60;99486.50;5023023;28;20400;-77
2021/05/24 05:32:23;;;;;;;12.30;2.00;;;;;;;30.18;29.12;99487.50;5006063;28;20049;-78
2021/05/24 05:34:50;;;;;;;10.80;2.30;;;;;;;30.39;28.80;99494.19;5022481;28;20549;-79
2021/05/24 05:37:19;;;;;;;7.93;2.20;;;;;;;30.46;29.03;99486.59;5024386;28;20059;-82
2021/05/24 05:39:47;;;;;;;;;;;;;;;30.65;29.07;99490.78;5040831;28;20561;-79
2021/05/24 05:42:13;;;;;;;;;;;;;;;30.74;29.21;99488.50;5040264;28;19916;-78
2021/05/24 05:44:39;;;;;;;13.85;2.70;;;;;;;30.79;29.22;99482.22;5056192;28;20367;-79
2021/05/24 05:47:05;;;;;;;14.63;2.35;;;;;;;30.92;28.66;99482.72;5039578;28;20051;-78
2021/05/24 05:49:31;;;;;;;11.32;2.53;;;;;;;31.10;28.72;99478.00;5006294;28;20043;-80
2021/05/24 05:51:58;;;;;;;9.55;1.98;;;;;;;31.13;28.38;99478.34;5023813;28;20068;-81
2021/05/24 05:54:24;;;;;;;23.90;3.15;;;;;;;31.19;28.30;99477.31;5024219;28;20118;-81
2021/05/24 05:56:50;;;;;;;12.75;2.00;;;;;;;31.24;28.66;99475.72;5040215;28;20088;-82
2021/05/24 05:59:19;;;;;;;12.82;2.40;;;;;;;31.36;28.42;99477.31;5023664;28;20542;-78
2021/05/24 06:01:45;;;;;;;12.45;2.10;;;;;;;31.41;28.43;99468.28;5023532;28;20036;-80
2021/05/24 06:04:11;;;;;;;15.52;2.55;;;;;;;31.65;28.63;99469.66;5006585;28;20040;-79
2021/05/24 06:06:37;;;;;;;13.45;2.55;;;;;;;31.69;28.40;99475.50;5022414;28;20040;-78
2021/05/24 06:09:04;;;;;;;14.95;2.35;;;;;;;31.78;27.94;99475.88;5005600;28;20138;-78
2021/05/24 06:11:30;;;;;;;17.48;2.20;;;;;;;31.72;26.41;99471.41;5055545;28;20380;-81
2021/05/24 06:13:56;;;;;;;10.77;2.00;;;;;;;31.91;26.63;99473.59;5006027;28;20197;-79
2021/05/24 06:16:22;;;;;;;16.83;2.15;;;;;;;31.92;24.90;99463.38;5022724;28;20052;-79
2021/05/24 06:18:48;;;;;;;12.23;1.60;;;;;;;32.08;24.05;99473.53;5038644;28;20506;-78
2021/05/24 06:21:14;;;;;;;21.20;2.17;;;;;;;32.12;23.39;99463.59;5039024;28;20110;-79
2021/05/24 06:23:45;;;;;;;29.52;1.63;;;;;;;32.27;23.16;99462.91;5038624;28;20518;-80
2021/05/24 06:26:12;;;;;;;19.60;1.85;;;;;;;32.33;23.63;99450.78;5056097;28;20055;-79
2021/05/24 06:28:38;;;;;;;7.93;1.77;;;;;;;32.41;23.60;99446.72;5038824;28;20044;-78
2021/05/24 06:31:04;;;;;;;15.07;1.80;;;;;;;32.56;22.78;99455.16;5022543;28;20487;-80
2021/05/24 06:33:30;;;;;;;13.02;1.60;;;;;;;32.80;22.81;99468.66;5022211;28;20098;-80
2021/05/24 06:35:56;;;;;;;11.25;1.48;;;;;;;32.96;22.88;99445.53;5021828;28;20153;-80
2021/05/24 06:38:22;;;;;;;10.90;1.90;;;;;;;33.20;22.83;99445.09;5026510;28;20448;-79
2021/05/24 06:40:48;;;;;;;11.82;1.48;;;;;;;33.45;21.99;99455.50;5042463;28;20040;-79
2021/05/24 06:43:14;;;;;;;15.35;1.60;;;;;;;33.46;22.50;99448.84;5010123;28;20056;-79
2021/05/24 06:45:43;;;;;;;12.50;1.80;;;;;;;33.61;22.26;99437.84;5009663;28;20123;-79
2021/05/24 06:48:09;;;;;;;10.73;1.55;;;;;;;33.63;22.30;99457.81;5009766;28;20139;-83
2021/05/24 06:50:36;;;;;;;7.85;1.67;;;;;;;33.69;22.42;99448.41;5026356;28;20053;-79
2021/05/24 06:53:02;;;;;;;15.93;1.60;;;;;;;33.89;22.23;99463.41;5041800;28;20036;-80
2021/05/24 06:55:28;;;;;;;17.92;1.40;;;;;;;33.84;19.95;99455.94;5042263;28;20055;-80
2021/05/24 06:57:55;;;;;;;17.95;1.80;;;;;;;33.89;20.14;99449.56;5027346;28;20415;-79
2021/05/24 07:00:21;;;;;;;11.88;1.65;;;;;;;34.02;20.00;99447.13;5025511;28;20052;-78
2021/05/24 07:02:48;;;;;;;13.15;1.40;;;;;;;34.11;19.92;99454.91;5043035;28;20040;-79
2021/05/24 07:05:14;;;;;;;17.67;2.03;;;;;;;34.13;19.66;99450.75;5026526;28;20036;-80
2021/05/24 07:07:41;;;;;;;9.27;1.33;;;;;;;34.16;19.89;99453.00;5013799;28;20053;-79
2021/05/24 07:10:08;;;;;;;10.93;1.65;;;;;;;34.29;19.91;99452.44;5029754;28;20071;-81
2021/05/24 07:12:35;;;;;;;26.33;2.35;;;;;;;34.31;19.50;99444.69;5012512;28;20088;-79
2021/05/24 07:15:03;;;;;;;15.90;1.80;;;;;;;34.36;18.98;99441.06;5010242;28;20063;-81
2021/05/24 07:17:30;;;;;;;12.02;1.38;;;;;;;34.57;18.79;99436.41;5045055;28;20040;-80
2021/05/24 07:19:57;;;;;;;22.35;2.08;;;;;;;34.52;19.10;99437.22;5011855;28;20071;-82
2021/05/24 07:22:23;;;;;;;11.07;1.52;;;;;;;34.58;18.82;99443.59;5044202;28;20059;-80
2021/05/24 07:24:49;;;;;;;14.75;1.38;;;;;;;34.71;18.97;99444.97;5025451;28;20047;-81
2021/05/24 07:27:15;;;;;;;16.25;1.65;;;;;;;34.89;18.85;99432.47;5025165;28;20053;-79
2021/05/24 07:29:41;;;;;;;46.17;3.13;;;;;;;34.76;18.11;99429.16;5025673;28;20128;-80
2021/05/24 07:32:11;;;;;;;25.70;1.77;;;;;;;34.74;18.04;99438.88;5025207;28;20044;-79
2021/05/24 07:34:37;;;;;;;28.58;1.90;;;;;;;34.76;18.11;99428.31;5058490;28;20127;-79
2021/05/24 07:37:04;;;;;;;14.32;1.40;;;;;;;34.84;18.11;99451.91;5040990;28;20044;-80
2021/05/24 07:39:30;;;;;;;14.93;1.45;;;;;;;34.90;17.95;99429.38;5025196;28;20040;-79
2021/05/24 07:42:00;;;;;;;25.27;2.30;;;;;;;34.97;18.18;99429.09;5024897;28;20040;-79
2021/05/24 07:44:29;;;;;;;18.65;1.95;;;;;;;34.99;17.71;99449.97;5009014;28;20044;-79
2021/05/24 07:46:59;;;;;;;14.40;1.58;;;;;;;34.93;17.90;99431.59;5025737;28;20078;-80
2021/05/24 07:49:25;;;;;;;17.45;1.63;;;;;;;35.07;17.97;99422.72;5008441;28;20044;-79
2021/05/24 07:51:51;;;;;;;13.45;1.48;;;;;;;35.34;18.08;99427.91;5032164;28;20040;-80
2021/05/24 07:54:18;;;;;;;9.32;1.60;;;;;;;35.50;18.25;99435.09;5035506;28;20043;-78
2021/05/24 07:56:44;;;;;;;8.13;1.30;;;;;;;35.55;18.03;99420.38;5047131;28;20071;-79
2021/05/24 07:59:10;;;;;;;17.38;1.92;;;;;;;35.42;18.30;99433.72;5041675;28;20044;-80
2021/05/24 08:01:36;;;;;;;12.52;1.45;;;;;;;35.33;18.24;99410.41;5058134;28;20079;-78
2021/05/24 08:04:03;;;;;;;12.80;1.75;;;;;;;35.50;17.39;99427.59;5040404;28;20395;-79
2021/05/24 08:06:29;;;;;;;15.32;1.15;;;;;;;35.42;16.99;99408.69;5040553;28;20488;-79
2021/05/24 08:08:55;;;;;;;13.05;1.70;;;;;;;35.63;17.49;99436.44;5008171;28;20048;-79
2021/05/24 08:11:22;;;;;;;12.25;1.55;;;;;;;35.76;17.59;99424.69;5024108;28;20040;-80
2021/05/24 08:13:48;;;;;;;12.15;1.50;;;;;;;35.86;17.74;99424.63;5042163;28;20061;-81
2021/05/24 08:16:15;;;;;;;9.30;1.20;;;;;;;35.89;17.30;99412.94;5041134;28;20048;-81
2021/05/24 08:18:41;;;;;;;7.78;1.10;;;;;;;35.92;17.22;99409.59;5041498;28;20095;-82
2021/05/24 08:21:11;;;;;;;14.77;1.67;;;;;;;36.16;17.24;99425.56;5041139;28;20050;-81
2021/05/24 08:23:38;;;;;;;16.52;2.03;;;;;;;36.28;16.67;99414.06;5008923;28;20040;-82
2021/05/24 08:26:04;;;;;;;13.85;1.48;;;;;;;36.12;16.91;99413.38;5025422;28;20036;-79
2021/05/24 08:28:33;;;;;;;18.45;1.70;;;;;;;36.17;16.81;99407.75;5041708;28;20052;-80
2021/05/24 08:30:59;;;;;;;8.30;1.48;;;;;;;36.44;17.40;99419.22;5057070;28;20488;-81
2021/05/24 08:33:25;;;;;;;18.90;1.83;;;;;;;36.39;16.59;99432.34;5057717;28;20040;-80
2021/05/24 08:35:51;;;;;;;18.50;1.35;;;;;;;36.48;16.19;99419.50;5007946;28;20052;-83
2021/05/24 08:38:19;;;;;;;6.13;1.10;;;;;;;36.50;16.20;99419.22;5008086;28;20037;-81
2021/05/24 08:40:46;;;;;;;12.13;1.40;;;;;;;36.44;15.96;99391.38;5023683;28;20434;-79
2021/05/24 08:43:14;;;;;;;15.40;1.38;;;;;;;36.57;15.74;99400.22;5039961;28;20062;-79
2021/05/24 08:45:40;;;;;;;12.55;1.55;;;;;;;36.68;15.96;99399.81;5056464;28;20384;-79
2021/05/24 08:48:07;;;;;;;7.50;1.10;;;;;;;37.00;16.18;99398.41;5023610;28;20040;-79
2021/05/24 08:50:33;;;;;;;12.65;1.30;;;;;;;37.17;15.99;99400.72;5006992;28;20074;-80
2021/05/24 08:53:00;;;;;;;12.88;1.40;;;;;;;37.21;16.18;99393.41;5023258;28;20135;-79
2021/05/24 08:55:29;;;;;;;14.77;1.40;;;;;;;37.49;16.12;99388.06;5024240;28;20045;-80
2021/05/24 08:57:57;;;;;;;11.65;1.33;;;;;;;37.84;16.16;99397.88;5039114;28;20044;-81
2021/05/24 09:00:23;;;;;;;7.38;1.40;;;;;;;37.92;16.21;99399.22;5005989;28;20041;-84
2021/05/24 09:02:55;;;;;;;12.02;1.95;;;;;;;37.86;16.10;99399.25;5006783;28;20059;-80
2021/05/24 09:05:30;;;;;;;10.90;1.27;;;;;;;37.58;15.59;99392.69;5023105;28;20052;-80
2021/05/24 09:07:58;;;;;;;19.88;2.00;;;;;;;37.67;15.59;99384.47;5040745;28;20064;-80
2021/05/24 09:10:27;;;;;;;11.98;1.70;;;;;;;37.68;15.38;99383.34;5022985;28;20083;-79
2021/05/24 09:12:54;;;;;;;11.95;1.35;;;;;;;37.71;15.02;99385.53;5022480;28;20071;-79
2021/05/24 09:15:24;;;;;;;13.45;2.00;;;;;;;37.85;15.43;99383.66;5039517;28;20139;-80
2021/05/24 09:17:54;;;;;;;110.78;6.18;;;;;;;37.89;15.45;99387.53;5037059;28;20056;-80
2021/05/24 09:20:21;;;;;;;8.13;1.20;;;;;;;37.85;15.11;99369.69;5006109;28;20052;-80
2021/05/24 09:23:16;;;;;;;15.00;1.55;;;;;;;38.01;15.05;99375.91;5072293;28;20040;-80
2021/05/24 09:25:47;;;;;;;20.75;1.75;;;;;;;38.16;15.11;99385.97;5022172;28;20055;-80
2021/05/24 09:28:35;;;;;;;10.43;1.30;;;;;;;38.49;15.04;99377.66;5038706;28;20052;-80
2021/05/24 09:31:15;;;;;;;6.43;1.10;;;;;;;38.81;14.99;99388.78;5038864;28;20453;-80
2021/05/24 09:33:48;;;;;;;7.90;1.30;;;;;;;38.77;14.31;99379.34;5039012;28;20059;-81
2021/05/24 09:36:15;;;;;;;10.23;1.30;;;;;;;38.72;14.55;99385.03;5023099;28;20466;-78
2021/05/24 09:38:49;;;;;;;10.40;1.52;;;;;;;38.82;14.48;99381.25;5022518;28;20128;-81
2021/05/24 09:41:16;;;;;;;8.25;1.02;;;;;;;38.85;14.53;99384.22;5006941;28;20052;-81
2021/05/24 09:43:47;;;;;;;13.32;1.38;;;;;;;39.03;14.64;99376.06;5071767;28;20076;-79
2021/05/24 09:46:19;;;;;;;14.45;1.60;;;;;;;39.14;14.51;99366.34;5055309;28;20110;-81
2021/05/24 09:48:52;;;;;;;19.63;1.50;;;;;;;39.15;14.46;99361.56;5073343;28;20040;-79
2021/05/24 09:51:21;;;;;;;28.65;1.75;;;;;;;39.25;14.62;99362.22;5071868;28;20090;-80
2021/05/24 09:54:12;;;;;;;12.95;1.30;;;;;;;39.32;14.22;99359.84;5021728;28;20072;-79
2021/05/24 09:56:40;;;;;;;4.97;1.30;;;;;;;39.52;14.37;99360.53;5038279;28;20075;-79
2021/05/24 09:59:13;;;;;;;4.93;1.20;;;;;;;39.99;14.47;99356.38;5022195;28;20037;-80
2021/05/24 10:01:45;;;;;;;10.93;1.30;;;;;;;40.34;14.09;99339.00;5006367;28;20048;-80
2021/05/24 10:04:18;;;;;;;7.05;1.30;;;;;;;40.26;13.92;99349.00;5056062;28;20047;-79
2021/05/24 10:06:44;;;;;;;11.57;1.40;;;;;;;40.11;14.01;99367.00;5056078;28;20049;-81
2021/05/24 10:09:12;;;;;;;22.75;1.90;;;;;;;39.98;13.89;99356.66;5072008;28;20037;-80
2021/05/24 10:11:39;;;;;;;22.52;1.70;;;;;;;40.08;14.01;99353.63;5022301;28;20037;-79
2021/05/24 10:14:06;;;;;;;;;;;;;;;40.21;13.83;99355.59;5023699;28;20065;-78
2021/05/24 10:16:33;;;;;;;11.35;1.33;;;;;;;40.64;13.72;99352.22;5039176;28;19920;-80
2021/05/24 10:18:59;;;;;;;9.02;1.20;;;;;;;40.61;13.54;99341.66;5039015;28;20045;-79
2021/05/24 10:21:26;;;;;;;5.45;1.20;;;;;;;41.05;13.65;99334.28;5038369;28;20074;-77
2021/05/24 10:23:54;;;;;;;6.20;1.10;;;;;;;41.33;13.40;99328.41;5006205;28;20154;-79
2021/05/24 10:26:21;;;;;;;13.85;1.92;;;;;;;41.38;13.56;99322.66;5039918;28;20138;-79
2021/05/24 10:28:47;;;;;;;10.32;2.53;;;;;;;41.64;13.66;99340.38;5038776;28;20403;-79
2021/05/24 10:31:18;;;;;;;10.23;2.20;;;;;;;41.66;13.22;99321.19;5005634;28;20130;-79
2021/05/24 10:33:45;;;;;;;19.88;2.58;;;;;;;41.85;12.87;99334.09;5055190;28;20131;-79
2021/05/24 10:36:32;;;;;;;10.55;1.80;;;;;;;42.26;13.28;99341.19;5022044;28;20041;-79
2021/05/24 10:39:05;;;;;;;;;;;;;;;42.51;12.98;99339.50;5007142;28;20495;-79
2021/05/24 10:41:45;;;;;;;10.48;1.10;;;;;;;42.31;12.89;99341.84;5022029;28;19956;-79
2021/05/24 10:44:21;;;;;;;15.05;1.73;;;;;;;42.30;13.05;99320.53;5038113;28;20102;-79
2021/05/24 10:46:48;;;;;;;14.37;1.67;;;;;;;42.78;12.67;99338.25;5054742;28;20119;-80
2021/05/24 10:49:17;;;;;;;4.05;1.20;;;;;;;43.14;12.88;99327.34;5038314;28;20291;-82
2021/05/24 10:51:54;;;;;;;6.78;1.10;;;;;;;43.99;12.38;99326.25;5022318;28;20491;-79
2021/05/24 10:54:20;;;;;;;7.18;1.10;;;;;;;44.41;12.19;99314.06;5022473;28;20127;-79
2021/05/24 10:56:58;;;;;;;9.60;1.77;;;;;;;44.45;12.19;99332.75;5038555;28;20152;-79
2021/05/24 10:59:43;;;;;;;19.27;1.60;;;;;;;43.88;11.68;99313.75;5054634;28;20041;-79
2021/05/24 11:02:18;;;;;;;8.77;1.40;;;;;;;43.11;12.29;99308.34;5038150;28;20140;-80
2021/05/24 11:04:44;;;;;;;11.20;1.60;;;;;;;43.75;12.22;99309.22;5038077;28;20044;-80
2021/05/24 11:07:36;;;;;;;5.20;1.27;;;;;;;43.91;11.92;99306.63;5038027;28;20397;-82
2021/05/24 11:10:31;;;;;;;10.68;1.25;;;;;;;44.26;11.91;99298.63;5006287;28;20044;-82
2021/05/24 11:13:07;;;;;;;14.47;1.40;;;;;;;44.36;11.83;99295.41;5019777;28;20092;-80
2021/05/24 11:15:33;;;;;;;9.43;1.45;;;;;;;44.56;11.77;99282.38;5038280;28;20099;-79
2021/05/24 11:17:59;;;;;;;22.30;1.85;;;;;;;44.60;11.63;99280.50;5021432;28;20205;-79
2021/05/24 11:20:50;;;;;;;8.45;1.38;;;;;;;44.85;11.82;99284.19;5070830;28;20040;-81
2021/05/24 11:23:32;;;;;;;7.07;1.20;;;;;;;45.22;11.96;99284.19;5055203;28;20040;-80
2021/05/24 11:26:30;;;;;;;12.98;1.83;;;;;;;45.42;11.26;99282.34;5058016;28;20064;-79
2021/05/24 11:29:16;;;;;;;14.65;1.90;;;;;;;45.66;11.15;99273.81;5059986;28;20044;-82
2021/05/24 11:31:46;;;;;;;10.60;2.30;;;;;;;45.84;11.61;99271.53;5028268;28;20037;-81